• Join FlightAware (Why Join?)
  • Login
  • US Flag 
09:13PM EDT


 

Airport Tracker/Info


-or-


 

Live Flight TrackerFlight Track Log ✈ FLG3757 ✈ 16-Oct-2013 ✈ KBGM - KDTW

Flight Track Log - Related Links

Times and Time Zones

All times are in EDT time to prevent confusion due to time zone crossing. See the FLG3757 flight status page for this flight to view local times or setup timezone preferences in your user account.

Time Position Orientation Groundspeed Altitude Reporting Facility
EDT Latitude Longitude Course Direction KTS MPH feet Rate Location/Type
06:09AM 42.1378 -75.9836 289° West 170 196 4,600  Level New York Center
06:10AM 42.1358 -76.0786 268° West 166 191 6,700 2,580 Climbing New York Center
06:11AM 42.1600 -76.1897 286° West 226 260 9,800 2,400 Climbing New York Center
06:12AM 42.1928 -76.2903 294° West 253 291 11,500 2,040 Climbing New York Center
06:13AM 42.2264 -76.5785 289° West  Level Estimated
06:13AM 42.2233 -76.3936 292° West 280 322 13,900  Level New York Center
06:13AM 42.2508 -76.4664 297° West 309 356 14,800 1,560 Climbing Cleveland Center
06:14AM 42.2878 -76.5797 294° West 325 374 16,800 1,800 Climbing Cleveland Center
06:15AM 42.3239 -76.6922 293° West 328 377 18,500 1,560 Climbing Cleveland Center
06:16AM 42.3597 -76.8036 294° West 326 375 20,000 1,200 Climbing Cleveland Center
06:17AM 42.3958 -76.9189 293° West 330 380 21,000 960 Climbing Cleveland Center
06:18AM 42.4344 -77.0372 294° West 341 392 22,000 1,080 Climbing Cleveland Center
06:19AM 42.4800 -77.1833 293° West 350 403 23,200 1,080 Climbing Cleveland Center
06:20AM 42.5189 -77.3061 293° West 353 406 24,200 900 Climbing Cleveland Center
06:21AM 42.5383 -77.4350 282° West 357 411 25,100 780 Climbing Cleveland Center
06:22AM 42.5458 -77.5622 275° West 345 397 25,800 420 Climbing Cleveland Center
06:23AM 42.5544 -77.6947 275° West 353 406 26,000 60 Climbing Cleveland Center
06:25AM 42.5636 -77.8464 275° West 373 429 26,000  Level Cleveland Center
06:26AM 42.5722 -77.9944 275° West 387 445 26,000  Level Cleveland Center
06:27AM 42.5806 -78.1458 274° West 399 459 26,000  Level Cleveland Center
06:28AM 42.5903 -78.2975 275° West 404 465 26,000  Level Cleveland Center
06:29AM 42.5983 -78.4450 274° West 396 456 26,000  Level Cleveland Center
06:30AM 42.6028 -78.5939 272° West 399 459 26,000  Level Cleveland Center
06:31AM 42.6011 -78.7422 269° West 394 453 26,000  Level Cleveland Center
06:32AM 42.6006 -78.8914 270° West 397 457 26,000  Level Cleveland Center
06:33AM 42.5992 -79.0406 269° West 398 458 26,000  Level Cleveland Center
06:34AM 42.5978 -79.1889 269° West 395 455 26,000  Level Cleveland Center
06:35AM 42.5953 -79.3372 269° West 395 455 26,000  Level Cleveland Center
06:36AM 42.5936 -79.4864 269° West 396 456 26,000  Level Cleveland Center
06:37AM 42.5908 -79.6644 269° West 394 453 26,000  Level Cleveland Center
06:38AM 42.5875 -79.8114 268° West 393 452 26,000  Level Cleveland Center
06:39AM 42.5847 -79.9603 269° West 394 453 26,000  Level Cleveland Center
06:40AM 42.5792 -80.1106 267° West 388 447 26,000  Level Cleveland Center
06:41AM 42.5767 -80.2597 269° West 391 450 26,000  Level Cleveland Center
06:42AM 42.5747 -80.4097 269° West 393 452 26,000  Level Cleveland Center
06:43AM 42.5708 -80.5586 268° West 393 452 26,000  Level Cleveland Center
06:44AM 42.5675 -80.7064 268° West 390 449 26,000  Level Cleveland Center
06:45AM 42.5639 -80.8572 268° West 395 455 26,000 -600 Level Cleveland Center
06:46AM 42.5600 -81.0047 268° West 391 450 24,800 -1,140 Descending Cleveland Center
06:47AM 42.5556 -81.1550 268° West 394 453 23,800 -1,080 Descending Cleveland Center
06:48AM 42.5517 -81.3036 268° West 393 452 22,700 -1,140 Descending Cleveland Center
06:49AM 42.5467 -81.4525 267° West 393 452 21,500 -1,140 Descending Cleveland Center
06:50AM 42.5422 -81.5936 268° West 378 435 20,400 -780 Descending Cleveland Center
06:51AM 42.5381 -81.7289 268° West 361 415 20,000 -360 Descending Cleveland Center
06:52AM 42.5319 -81.8867 267° West 363 418 19,700 -1,080 Descending Cleveland Center
06:53AM 42.5278 -82.0228 268° West 364 419 17,800 -1,800 Descending Cleveland Center
06:54AM 42.5231 -82.1489 267° West 345 397 16,100 -1,680 Descending Cleveland Center
06:55AM 42.5194 -82.2683 268° West 324 373 14,400 -1,800 Descending Cleveland Center
06:55AM 42.5186 -82.3017 268° West 310 357 13,900 -1,860 Descending Cleveland Center
06:56AM 42.5167 -82.3608 267° West 310 357 13,100 -1,500 Descending Cleveland Center
06:56AM 42.5142 -82.3842 262° West 313 360 12,700 -1,140 Descending Cleveland Center
06:57AM 42.5100 -82.4875 267° West 329 379 12,000 -720 Descending Cleveland Center
06:57AM 42.5086 -82.5064 264° West 321 369 12,000  Level Cleveland Center
06:58AM 42.4872 -82.6006 253° West 318 366 12,000  Level Cleveland Center
06:58AM 42.4808 -82.6186 244° Southwest 316 364 12,000 -360 Level Cleveland Center
06:59AM 42.4553 -82.6953 246° West 310 357 11,700 -600 Descending Cleveland Center
06:59AM 42.4450 -82.7206 241° Southwest 307 353 11,400 -1,380 Descending Cleveland Center
07:00AM 42.4214 -82.7897 245° Southwest 244 281 10,200 -1,500 Descending Cleveland Center
07:00AM 42.4139 -82.8033 233° Southwest 261 300 9,900 -1,800 Descending Cleveland Center
07:01AM 42.4086 -82.8786 265° West 233 268 8,400 -2,040 Descending Cleveland Center
07:01AM 42.4058 -82.9083 263° West 239 275 7,800 -1,800 Descending Cleveland Center
07:02AM 42.4022 -82.9653 265° West 228 262 6,600 -1,680 Descending Cleveland Center
07:02AM 42.4006 -82.9917 265° West 229 264 6,100 -660 Descending Cleveland Center
07:03AM 42.3964 -83.0436 264° West 227 261 6,000 -420 Descending Cleveland Center
07:03AM 42.3942 -83.0761 265° West 226 260 5,700 -1,140 Descending Cleveland Center
07:04AM 42.3922 -83.1250 267° West 214 246 4,900 -1,620 Descending Cleveland Center
07:04AM 42.3883 -83.1556 260° West 218 251 4,100 -900 Descending Cleveland Center
07:05AM 42.3703 -83.1925 237° Southwest 181 208 4,000 -420 Descending Cleveland Center
07:05AM 42.3592 -83.2117 232° Southwest 188 216 3,700 -660 Descending Cleveland Center
07:06AM 42.3256 -83.2539 223° Southwest 174 200 3,000 -780 Descending Cleveland Center
07:07AM 42.2969 -83.2756 209° Southwest 142 163 2,500 -720 Descending Cleveland Center
07:07AM 42.2883 -83.2817 208° Southwest 161 185 2,300 -840 Descending Cleveland Center
07:08AM 42.2658 -83.2994 210° Southwest 132 152 1,700 -720 Descending Cleveland Center
07:08AM 42.2575 -83.3044 204° Southwest 141 162 1,600 -720 Descending Cleveland Center
07:09AM 42.2347 -83.3233 212° Southwest 131 151 1,000 -540 Descending Cleveland Center
07:09AM 42.2211 -83.3306 201° Southwest 135 155 1,100 180 Climbing Cleveland Center
07:11AM 42.2000 -83.3500 236° Southwest  Level FlightAware Approximate
07:18AM 42.2124 -83.3534 236° Southwest  Level Estimated
07:19AM 42.2124 -83.3534 236° Southwest  Level Estimated